createdAt,value
2022-10-17T00:00:40.171Z,73.38
2022-10-17T00:03:07.172Z,73.39
2022-10-17T00:05:34.044Z,73.55
2022-10-17T00:08:00.695Z,73.18
2022-10-17T00:10:27.664Z,73.17
2022-10-17T00:12:54.686Z,73.29
2022-10-17T00:15:21.745Z,73.25
2022-10-17T00:17:48.494Z,73.36
2022-10-17T00:20:15.909Z,73.47
2022-10-17T00:22:43.249Z,73.55
2022-10-17T00:25:10.344Z,73.55
2022-10-17T00:27:41.585Z,73.53
2022-10-17T00:30:15.578Z,73.32
2022-10-17T00:32:42.480Z,73.44
2022-10-17T00:35:09.437Z,73.56
2022-10-17T00:37:36.228Z,73.87
2022-10-17T00:40:04.290Z,73.98
2022-10-17T00:42:31.242Z,73.80
2022-10-17T00:45:12.663Z,73.63
2022-10-17T00:47:40.208Z,73.80
2022-10-17T00:50:07.332Z,74.12
2022-10-17T00:52:34.836Z,74.21
2022-10-17T00:55:13.875Z,74.13
2022-10-17T00:57:41.954Z,74.21
2022-10-17T01:00:11.833Z,74.04
2022-10-17T01:02:39.235Z,74.11
2022-10-17T01:05:07.491Z,74.39
2022-10-17T01:07:37.216Z,74.38
2022-10-17T01:10:06.814Z,74.28
2022-10-17T01:12:47.010Z,74.41
2022-10-17T01:15:19.779Z,74.43
2022-10-17T01:18:01.545Z,74.42
2022-10-17T01:21:02.516Z,74.33
2022-10-17T01:23:47.443Z,74.41
2022-10-17T01:26:48.411Z,74.33
2022-10-17T01:29:37.032Z,74.41
2022-10-17T01:32:23.557Z,74.37
2022-10-17T01:35:04.110Z,74.51
2022-10-17T01:37:33.673Z,74.32
2022-10-17T01:40:10.857Z,74.47
2022-10-17T01:42:56.991Z,74.73
2022-10-17T01:45:41.144Z,74.54
2022-10-17T01:48:15.083Z,74.57
2022-10-17T01:50:47.842Z,74.71
2022-10-17T01:53:24.184Z,74.74
2022-10-17T01:55:54.420Z,74.54
2022-10-17T01:58:33.904Z,74.79
2022-10-17T02:01:05.320Z,74.88
2022-10-17T02:03:34.598Z,75.04
2022-10-17T02:06:02.333Z,74.85
2022-10-17T02:08:40.999Z,75.08
2022-10-17T02:11:20.778Z,74.95
2022-10-17T02:14:05.071Z,75.05
2022-10-17T02:16:50.549Z,75.02
2022-10-17T02:19:52.993Z,75.00
2022-10-17T02:22:31.495Z,75.52
2022-10-17T02:25:14.132Z,75.54
2022-10-17T02:27:59.569Z,75.45
2022-10-17T02:30:29.129Z,75.27
2022-10-17T02:33:21.775Z,75.57
2022-10-17T02:35:53.955Z,75.47
2022-10-17T02:38:22.959Z,75.14
2022-10-17T02:40:51.946Z,75.55
2022-10-17T02:43:19.999Z,75.30
2022-10-17T02:45:47.214Z,75.41
2022-10-17T02:48:42.738Z,75.20
2022-10-17T02:51:16.038Z,75.29
2022-10-17T02:54:13.160Z,75.32
2022-10-17T02:57:08.012Z,75.18
2022-10-17T02:59:35.814Z,75.01
2022-10-17T03:02:05.392Z,74.96
2022-10-17T03:04:32.842Z,74.67
2022-10-17T03:07:00.046Z,74.84
2022-10-17T03:09:27.183Z,74.55
2022-10-17T03:11:54.087Z,74.77
2022-10-17T03:14:20.872Z,74.95
2022-10-17T03:16:47.605Z,74.90
2022-10-17T03:19:14.172Z,75.12
2022-10-17T03:21:41.377Z,75.21
2022-10-17T03:24:07.953Z,75.27
2022-10-17T03:26:34.679Z,75.13
2022-10-17T03:29:01.435Z,75.41
2022-10-17T03:31:28.135Z,75.65
2022-10-17T03:33:54.771Z,75.80
2022-10-17T03:36:21.957Z,75.66
2022-10-17T03:38:48.963Z,76.25
2022-10-17T03:41:15.721Z,76.05
2022-10-17T03:43:42.566Z,75.98
2022-10-17T03:46:09.498Z,75.80
2022-10-17T03:48:36.132Z,75.87
2022-10-17T03:51:05.974Z,75.66
2022-10-17T03:53:33.210Z,75.95
2022-10-17T03:56:20.068Z,75.77
2022-10-17T03:58:46.941Z,75.67
2022-10-17T04:01:16.278Z,75.64
2022-10-17T04:03:44.124Z,75.61
2022-10-17T04:06:13.457Z,75.49
2022-10-17T04:08:40.376Z,75.40
2022-10-17T04:11:08.613Z,75.34
2022-10-17T04:13:35.783Z,75.55
2022-10-17T04:16:05.581Z,75.36
2022-10-17T04:18:33.331Z,75.31
2022-10-17T04:21:06.887Z,75.41
2022-10-17T04:23:34.440Z,75.31
2022-10-17T04:26:01.924Z,75.25
2022-10-17T04:28:28.791Z,74.90
2022-10-17T04:30:59.830Z,75.25
2022-10-17T04:33:26.723Z,75.07
2022-10-17T04:36:08.542Z,75.06
2022-10-17T04:38:35.131Z,75.03
2022-10-17T04:41:04.357Z,74.89
2022-10-17T04:43:35.454Z,74.84
2022-10-17T04:46:04.591Z,74.79
2022-10-17T04:48:31.691Z,74.91
2022-10-17T04:51:01.051Z,74.67
2022-10-17T04:53:28.301Z,74.84
2022-10-17T04:55:55.021Z,74.69
2022-10-17T04:58:22.275Z,74.59
2022-10-17T05:00:48.969Z,74.52
2022-10-17T05:03:15.903Z,74.45
2022-10-17T05:05:43.199Z,74.71
2022-10-17T05:08:11.914Z,74.66
2022-10-17T05:10:44.000Z,74.46
2022-10-17T05:13:11.217Z,74.41
2022-10-17T05:15:38.621Z,74.50
2022-10-17T05:18:06.389Z,74.35
2022-10-17T05:20:34.073Z,74.61
2022-10-17T05:23:00.939Z,74.47
2022-10-17T05:25:27.786Z,74.59
2022-10-17T05:27:54.684Z,74.63
2022-10-17T05:30:21.617Z,74.81
2022-10-17T05:32:48.405Z,74.94
2022-10-17T05:35:15.316Z,74.88
2022-10-17T05:37:41.931Z,75.16
2022-10-17T05:40:09.021Z,75.12
2022-10-17T05:42:35.802Z,75.01
2022-10-17T05:45:02.577Z,75.12
2022-10-17T05:47:29.475Z,75.55
2022-10-17T05:49:56.309Z,75.47
2022-10-17T05:52:23.155Z,75.53
2022-10-17T05:54:49.831Z,75.88
2022-10-17T05:57:16.538Z,75.82
2022-10-17T05:59:43.170Z,75.70
2022-10-17T06:02:13.055Z,75.96
2022-10-17T06:04:45.573Z,75.84
2022-10-17T06:07:16.154Z,76.00
2022-10-17T06:09:43.116Z,76.03
2022-10-17T06:12:10.066Z,76.26
2022-10-17T06:14:36.862Z,76.37
2022-10-17T06:17:03.572Z,76.41
2022-10-17T06:19:30.332Z,76.45
2022-10-17T06:21:56.991Z,76.54
2022-10-17T06:24:24.710Z,76.67
2022-10-17T06:26:51.637Z,76.81
2022-10-17T06:29:19.143Z,76.86
2022-10-17T06:31:47.164Z,76.81
2022-10-17T06:34:13.816Z,76.86
2022-10-17T06:36:40.531Z,76.99
2022-10-17T06:39:09.986Z,77.37
2022-10-17T06:41:39.700Z,77.26
2022-10-17T06:44:11.327Z,77.29
2022-10-17T06:46:40.085Z,77.32
2022-10-17T06:49:09.919Z,77.64
2022-10-17T06:51:39.084Z,77.95
2022-10-17T06:54:09.538Z,77.97
2022-10-17T06:56:39.180Z,78.04
2022-10-17T06:59:09.628Z,78.01
2022-10-17T07:01:41.777Z,78.05
2022-10-17T07:04:11.518Z,78.26
2022-10-17T07:06:39.555Z,78.23
2022-10-17T07:09:09.303Z,78.47
2022-10-17T07:11:39.244Z,78.61
2022-10-17T07:14:07.896Z,78.79
2022-10-17T07:16:35.100Z,78.84
2022-10-17T07:19:02.226Z,78.86
2022-10-17T07:21:29.391Z,79.03
2022-10-17T07:23:56.167Z,79.04
2022-10-17T07:26:23.084Z,79.21
2022-10-17T07:28:55.108Z,79.43
2022-10-17T07:31:23.111Z,79.28
2022-10-17T07:33:50.204Z,79.63
2022-10-17T07:36:17.809Z,79.72
2022-10-17T07:38:44.797Z,79.65
2022-10-17T07:41:13.729Z,79.59
2022-10-17T07:43:43.096Z,79.66
2022-10-17T07:46:11.494Z,79.65
2022-10-17T07:48:41.267Z,79.65
2022-10-17T07:51:09.531Z,79.60
2022-10-17T07:53:42.650Z,79.38
2022-10-17T07:56:10.981Z,79.30
2022-10-17T07:58:38.007Z,78.90
2022-10-17T08:01:10.672Z,78.71
2022-10-17T08:03:49.645Z,78.32
2022-10-17T08:06:16.632Z,78.16
2022-10-17T08:08:44.329Z,77.94
2022-10-17T08:11:13.453Z,77.65
2022-10-17T08:13:41.063Z,77.00
2022-10-17T08:16:09.954Z,75.95
2022-10-17T08:18:37.418Z,75.32
2022-10-17T08:21:06.594Z,74.68
2022-10-17T08:23:33.355Z,74.18
2022-10-17T08:26:01.408Z,73.41
2022-10-17T08:28:28.570Z,73.00
2022-10-17T08:31:06.663Z,72.51
2022-10-17T08:33:36.428Z,72.00
2022-10-17T08:36:04.889Z,71.03
2022-10-17T08:38:35.628Z,70.64
2022-10-17T08:41:44.484Z,70.02
2022-10-17T08:44:26.031Z,69.19
2022-10-17T08:46:59.025Z,68.59
2022-10-17T08:49:48.001Z,67.64
2022-10-17T08:52:30.793Z,67.11
2022-10-17T08:54:57.881Z,66.77
2022-10-17T08:57:24.452Z,65.81
2022-10-17T08:59:54.330Z,65.55
2022-10-17T09:03:14.637Z,65.55
2022-10-17T09:05:49.916Z,64.96
2022-10-17T09:08:32.491Z,64.24
2022-10-17T09:11:09.845Z,63.36
2022-10-17T09:14:08.313Z,62.75
2022-10-17T09:16:46.578Z,62.41
2022-10-17T09:19:39.179Z,62.10
2022-10-17T09:22:26.666Z,61.95
2022-10-17T09:24:59.317Z,61.60
2022-10-17T09:28:09.319Z,61.56
2022-10-17T09:30:56.177Z,61.28
2022-10-17T09:33:54.173Z,60.17
2022-10-17T09:36:27.630Z,59.91
2022-10-17T09:38:57.196Z,59.94
2022-10-17T09:41:44.983Z,59.36
2022-10-17T09:44:23.071Z,59.38
2022-10-17T09:46:59.712Z,58.96
2022-10-17T09:49:33.370Z,58.48
2022-10-17T09:52:02.238Z,58.66
2022-10-17T09:54:49.566Z,58.23
2022-10-17T09:57:18.116Z,57.86
2022-10-17T09:59:57.731Z,57.63
2022-10-17T10:02:26.103Z,57.41
2022-10-17T10:05:09.574Z,56.84
2022-10-17T10:07:39.594Z,56.50
2022-10-17T10:10:25.427Z,56.13
2022-10-17T10:13:16.808Z,56.31
2022-10-17T10:15:47.752Z,56.06
2022-10-17T10:18:27.008Z,55.53
2022-10-17T10:21:27.017Z,55.09
2022-10-17T10:24:12.061Z,55.18
2022-10-17T10:26:46.181Z,55.08
2022-10-17T10:29:32.409Z,55.44
2022-10-17T10:32:07.374Z,55.08
2022-10-17T10:34:36.175Z,54.94
2022-10-17T10:37:06.305Z,54.75
2022-10-17T10:39:53.350Z,54.48
2022-10-17T10:42:45.962Z,53.66
2022-10-17T10:45:47.096Z,53.48
2022-10-17T10:48:12.080Z,53.50
2022-10-17T10:50:45.368Z,53.19
2022-10-17T10:53:24.964Z,53.21
2022-10-17T10:55:57.016Z,52.55
2022-10-17T11:14:19.001Z,47.56
2022-10-17T11:17:19.972Z,47.99
2022-10-17T11:20:15.161Z,48.06
2022-10-17T11:22:47.168Z,48.09
2022-10-17T11:25:32.040Z,48.20
2022-10-17T11:28:04.434Z,48.03
2022-10-17T11:33:21.860Z,48.02
2022-10-17T11:35:51.239Z,48.06
2022-10-17T11:38:39.973Z,47.72
2022-10-17T11:41:11.502Z,47.85
2022-10-17T11:43:40.739Z,47.82
2022-10-17T11:46:16.549Z,47.86
2022-10-17T11:49:04.238Z,47.72
2022-10-17T11:52:02.128Z,47.80
2022-10-17T11:54:40.417Z,47.27
2022-10-17T11:57:37.392Z,47.21
2022-10-17T12:00:30.799Z,47.16
2022-10-17T12:03:13.039Z,46.96
2022-10-17T12:06:05.083Z,46.78
2022-10-17T12:08:56.422Z,46.80
2022-10-17T12:11:25.755Z,47.07
2022-10-17T12:13:54.774Z,46.91
2022-10-17T12:16:21.657Z,46.74
2022-10-17T12:18:52.109Z,46.69
2022-10-17T12:21:19.174Z,46.20
2022-10-17T12:23:55.608Z,45.95
2022-10-17T12:26:30.244Z,46.33
2022-10-17T12:28:57.721Z,45.98
2022-10-17T12:31:33.439Z,45.89
2022-10-17T12:34:02.449Z,45.69
2022-10-17T12:36:29.278Z,45.72
2022-10-17T12:39:01.967Z,45.42
2022-10-17T12:41:40.837Z,45.57
2022-10-17T12:44:13.584Z,45.33
2022-10-17T12:46:44.073Z,45.13
2022-10-17T12:49:40.423Z,45.03
2022-10-17T12:52:19.487Z,45.32
2022-10-17T12:55:14.406Z,44.96
2022-10-17T12:57:44.797Z,45.02
2022-10-17T13:00:22.210Z,44.93
2022-10-17T13:02:52.390Z,44.93
2022-10-17T13:05:38.232Z,45.27
2022-10-17T13:08:08.172Z,45.03
2022-10-17T13:10:43.029Z,45.08
2022-10-17T13:13:33.810Z,45.39
2022-10-17T13:16:01.000Z,45.14
2022-10-17T13:18:29.585Z,44.92
2022-10-17T13:20:57.557Z,45.20
2022-10-17T13:23:25.938Z,45.18
2022-10-17T13:26:14.683Z,45.23
2022-10-17T13:28:42.238Z,45.13
2022-10-17T13:31:28.246Z,45.03
2022-10-17T13:33:59.903Z,45.26
2022-10-17T13:36:28.907Z,45.67
2022-10-17T13:38:56.243Z,45.91
2022-10-17T13:41:36.678Z,45.70
2022-10-17T13:44:08.004Z,45.81
2022-10-17T13:46:38.343Z,46.15
2022-10-17T13:49:18.807Z,45.69
2022-10-17T13:51:51.120Z,45.62
2022-10-17T13:54:42.869Z,46.22
2022-10-17T13:57:25.080Z,46.49
2022-10-17T14:00:00.815Z,46.48
2022-10-17T14:02:36.687Z,46.97
2022-10-17T14:05:23.122Z,47.26
2022-10-17T14:10:43.614Z,47.72
2022-10-17T14:13:27.917Z,48.20
2022-10-17T14:15:57.249Z,48.83
2022-10-17T14:18:36.570Z,49.14
2022-10-17T14:21:36.931Z,49.14
2022-10-17T14:24:11.699Z,49.34
2022-10-17T14:26:51.925Z,49.61
2022-10-17T14:29:25.167Z,50.26
2022-10-17T14:32:06.636Z,50.81
2022-10-17T14:34:36.238Z,51.45
2022-10-17T14:37:23.354Z,52.00
2022-10-17T14:39:55.302Z,52.66
2022-10-17T14:42:24.900Z,52.97
2022-10-17T14:44:54.894Z,53.36
2022-10-17T14:47:42.748Z,53.58
2022-10-17T14:50:16.453Z,54.04
2022-10-17T14:53:19.275Z,54.43
2022-10-17T14:56:00.297Z,54.80
2022-10-17T14:58:35.181Z,55.34
2022-10-17T15:01:04.744Z,55.48
2022-10-17T15:03:31.485Z,55.88
2022-10-17T15:06:09.446Z,56.37
2022-10-17T15:08:36.959Z,56.53
2022-10-17T15:11:06.545Z,57.10
2022-10-17T15:13:42.189Z,57.44
2022-10-17T15:16:30.560Z,57.53
2022-10-17T15:18:58.061Z,57.99
2022-10-17T15:21:38.393Z,58.46
2022-10-17T15:24:12.704Z,58.83
2022-10-17T15:26:42.805Z,58.65
2022-10-17T15:29:18.761Z,59.01
2022-10-17T15:31:48.709Z,59.33
2022-10-17T15:34:18.412Z,59.59
2022-10-17T15:36:51.302Z,59.66
2022-10-17T15:39:19.675Z,59.88
2022-10-17T15:41:49.051Z,59.62
2022-10-17T15:44:18.856Z,60.11
2022-10-17T15:46:48.735Z,60.14
2022-10-17T15:49:20.047Z,60.35
2022-10-17T15:51:54.380Z,60.72
2022-10-17T15:54:21.979Z,60.86
2022-10-17T15:56:54.140Z,61.17
2022-10-17T15:59:32.307Z,61.41
2022-10-17T16:01:58.999Z,61.60
2022-10-17T16:04:27.519Z,61.77
2022-10-17T16:06:54.303Z,62.08
2022-10-17T16:09:21.246Z,62.27
2022-10-17T16:11:47.930Z,62.43
2022-10-17T16:14:18.266Z,62.86
2022-10-17T16:16:45.164Z,62.85
2022-10-17T16:19:11.736Z,63.06
2022-10-17T16:21:40.994Z,63.18
2022-10-17T16:24:11.258Z,63.68
2022-10-17T16:26:38.999Z,63.95
2022-10-17T16:29:05.807Z,64.14
2022-10-17T16:31:35.210Z,64.43
2022-10-17T16:34:03.403Z,64.83
2022-10-17T16:36:30.314Z,64.54
2022-10-17T16:38:57.213Z,64.68
2022-10-17T16:41:32.930Z,65.10
2022-10-17T16:44:02.854Z,65.11
2022-10-17T16:46:31.137Z,65.00
2022-10-17T16:48:58.386Z,65.34
2022-10-17T16:51:25.718Z,65.75
2022-10-17T16:53:54.650Z,65.71
2022-10-17T16:56:23.821Z,65.80
2022-10-17T16:58:51.707Z,66.05
2022-10-17T17:01:20.882Z,66.14
2022-10-17T17:03:47.870Z,66.38
2022-10-17T17:06:17.066Z,66.16
2022-10-17T17:08:44.037Z,66.46
2022-10-17T17:11:14.768Z,66.89
2022-10-17T17:13:42.875Z,67.04
2022-10-17T17:16:27.529Z,67.14
2022-10-17T17:19:08.351Z,67.04
2022-10-17T17:21:35.411Z,67.02
2022-10-17T17:24:03.570Z,67.26
2022-10-17T17:26:35.961Z,67.28
2022-10-17T17:29:03.643Z,67.30
2022-10-17T17:31:33.791Z,67.42
2022-10-17T17:34:01.113Z,67.54
2022-10-17T17:36:32.677Z,67.67
2022-10-17T17:39:02.700Z,67.80
2022-10-17T17:41:36.773Z,67.75
2022-10-17T17:44:04.963Z,67.53
2022-10-17T17:46:33.709Z,67.76
2022-10-17T17:49:03.143Z,67.76
2022-10-17T17:51:31.522Z,67.78
2022-10-17T17:53:59.670Z,67.99
2022-10-17T17:56:35.575Z,67.95
2022-10-17T17:59:02.847Z,68.16
2022-10-17T18:01:41.667Z,68.22
2022-10-17T18:04:11.995Z,68.08
2022-10-17T18:06:40.196Z,68.19
2022-10-17T18:09:07.978Z,68.29
2022-10-17T18:11:35.859Z,68.57
2022-10-17T18:14:06.015Z,68.41
2022-10-17T18:16:37.670Z,68.55
2022-10-17T18:19:07.274Z,68.67
2022-10-17T18:21:34.880Z,68.98
2022-10-17T18:24:02.041Z,68.93
2022-10-17T18:26:29.542Z,69.06
2022-10-17T18:28:56.620Z,69.16
2022-10-17T18:31:28.435Z,68.96
2022-10-17T18:33:57.323Z,68.52
2022-10-17T18:36:26.154Z,68.70
2022-10-17T18:38:54.363Z,68.82
2022-10-17T18:41:23.767Z,68.94
2022-10-17T18:43:52.369Z,68.74
2022-10-17T18:46:28.562Z,68.71
2022-10-17T18:48:56.214Z,68.84
2022-10-17T18:51:24.379Z,68.96
2022-10-17T18:53:55.349Z,68.90
2022-10-17T18:56:23.606Z,68.67
2022-10-17T18:58:52.832Z,68.95
2022-10-17T19:01:23.011Z,69.23
2022-10-17T19:03:52.838Z,69.32
2022-10-17T19:06:23.388Z,69.53
2022-10-17T19:08:54.085Z,69.61
2022-10-17T19:11:27.376Z,69.97
2022-10-17T19:13:58.564Z,69.80
2022-10-17T19:16:28.540Z,69.84
2022-10-17T19:18:58.085Z,69.97
2022-10-17T19:21:25.401Z,70.03
2022-10-17T19:23:56.301Z,70.15
2022-10-17T19:26:26.628Z,70.10
2022-10-17T19:28:55.581Z,70.12
2022-10-17T19:31:27.270Z,70.52
2022-10-17T19:33:56.288Z,70.72
2022-10-17T19:36:30.709Z,70.51
2022-10-17T19:39:04.724Z,70.59
2022-10-17T19:41:34.106Z,70.64
2022-10-17T19:44:01.341Z,70.54
2022-10-17T19:46:30.117Z,71.01
2022-10-17T19:48:56.878Z,70.94
2022-10-17T19:51:24.656Z,70.67
2022-10-17T19:53:52.955Z,70.39
2022-10-17T19:56:24.243Z,70.32
2022-10-17T19:58:51.196Z,70.31
2022-10-17T20:01:23.024Z,70.20
2022-10-17T20:03:49.847Z,70.33
2022-10-17T20:06:17.665Z,70.46
2022-10-17T20:08:44.298Z,70.31
2022-10-17T20:11:13.577Z,70.56
2022-10-17T20:13:41.052Z,70.64
2022-10-17T20:16:10.925Z,70.64
2022-10-17T20:18:38.308Z,70.86
2022-10-17T20:21:10.509Z,71.02
2022-10-17T20:23:37.576Z,70.95
2022-10-17T20:26:25.479Z,70.93
2022-10-17T20:28:55.252Z,71.24
2022-10-17T20:31:22.461Z,71.19
2022-10-17T20:33:55.133Z,71.14
2022-10-17T20:36:23.629Z,70.87
2022-10-17T20:38:55.567Z,70.79
2022-10-17T20:41:23.352Z,70.92
2022-10-17T20:43:51.864Z,71.18
2022-10-17T20:46:34.986Z,71.19
2022-10-17T20:49:03.746Z,71.29
2022-10-17T20:51:30.590Z,71.65
2022-10-17T20:56:30.439Z,71.80
2022-10-17T20:58:59.923Z,71.81
2022-10-17T21:01:27.829Z,71.67
2022-10-17T21:03:54.768Z,71.84
2022-10-17T21:06:23.716Z,71.60
2022-10-17T21:08:52.937Z,71.50
2022-10-17T21:11:22.251Z,71.46
2022-10-17T21:13:58.289Z,71.18
2022-10-17T21:16:25.822Z,71.34
2022-10-17T21:18:52.830Z,71.17
2022-10-17T21:21:22.633Z,71.07
2022-10-17T21:23:50.991Z,71.19
2022-10-17T21:26:18.857Z,71.30
2022-10-17T21:28:47.593Z,71.55
2022-10-17T21:31:26.059Z,71.78
2022-10-17T21:33:56.404Z,71.71
2022-10-17T21:36:24.493Z,71.89
2022-10-17T21:38:54.205Z,71.84
2022-10-17T21:41:23.357Z,71.89
2022-10-17T21:43:58.937Z,72.07
2022-10-17T21:46:25.868Z,72.12
2022-10-17T21:48:53.051Z,72.24
2022-10-17T21:51:23.073Z,72.40
2022-10-17T21:53:51.131Z,72.23
2022-10-17T21:56:20.815Z,72.56
2022-10-17T21:58:48.215Z,72.67
2022-10-17T22:01:20.911Z,72.80
2022-10-17T22:03:50.124Z,72.70
2022-10-17T22:06:39.137Z,72.79
2022-10-17T22:09:24.749Z,72.75
2022-10-17T22:11:56.893Z,72.70
2022-10-17T22:14:27.290Z,72.73
2022-10-17T22:16:54.510Z,72.76
2022-10-17T22:19:26.726Z,72.92
2022-10-17T22:21:54.287Z,72.67
2022-10-17T22:26:53.553Z,72.47
2022-10-17T22:29:20.453Z,72.44
2022-10-17T22:31:47.228Z,72.51
2022-10-17T22:34:15.342Z,72.18
2022-10-17T22:36:42.685Z,72.27
2022-10-17T22:39:09.582Z,72.06
2022-10-17T22:41:36.634Z,72.07
2022-10-17T22:44:03.705Z,72.00
2022-10-17T22:46:30.407Z,72.08
2022-10-17T22:48:57.073Z,72.27
2022-10-17T22:53:50.411Z,72.02
2022-10-17T22:56:20.208Z,72.00
2022-10-17T22:58:47.664Z,72.09
2022-10-17T23:01:17.205Z,72.18
2022-10-17T23:03:44.805Z,72.25
2022-10-17T23:06:12.289Z,72.35
2022-10-17T23:08:39.408Z,72.61
2022-10-17T23:11:07.519Z,72.52
2022-10-17T23:13:34.513Z,72.58
2022-10-17T23:16:01.148Z,72.75
2022-10-17T23:18:27.946Z,72.80
2022-10-17T23:20:55.105Z,72.83
2022-10-17T23:23:22.272Z,72.94
2022-10-17T23:25:49.565Z,73.03
2022-10-17T23:28:17.046Z,73.19
2022-10-17T23:30:44.168Z,73.18
2022-10-17T23:33:13.060Z,73.05
2022-10-17T23:35:40.589Z,72.97
2022-10-17T23:38:07.389Z,73.10
2022-10-17T23:40:35.412Z,73.08
2022-10-17T23:43:02.828Z,72.95
2022-10-17T23:45:33.403Z,72.74
2022-10-17T23:48:02.857Z,72.82
2022-10-17T23:50:29.668Z,72.99
2022-10-17T23:52:56.243Z,72.95
2022-10-17T23:55:22.884Z,73.03
2022-10-17T23:57:49.724Z,73.02
